sensor_id;sensor_type;location;lat;lon;timestamp;P1;durP1;ratioP1;P2;durP2;ratioP2
78453;SDS011;67750;55.832;49.124;2023-05-02T00:00:07;5.20;;;3.02;;
78453;SDS011;67750;55.832;49.124;2023-05-02T00:02:36;5.70;;;3.35;;
78453;SDS011;67750;55.832;49.124;2023-05-02T00:05:06;5.17;;;3.22;;
78453;SDS011;67750;55.832;49.124;2023-05-02T00:07:36;4.05;;;3.10;;
78453;SDS011;67750;55.832;49.124;2023-05-02T00:10:06;5.25;;;3.35;;
78453;SDS011;67750;55.832;49.124;2023-05-02T00:12:35;4.20;;;3.42;;
78453;SDS011;67750;55.832;49.124;2023-05-02T00:15:05;5.17;;;3.65;;
78453;SDS011;67750;55.832;49.124;2023-05-02T00:17:35;7.22;;;3.75;;
78453;SDS011;67750;55.832;49.124;2023-05-02T00:20:05;5.12;;;3.70;;
78453;SDS011;67750;55.832;49.124;2023-05-02T00:22:35;4.50;;;3.25;;
78453;SDS011;67750;55.832;49.124;2023-05-02T00:25:05;5.08;;;3.35;;
78453;SDS011;67750;55.832;49.124;2023-05-02T00:27:34;5.97;;;3.52;;
78453;SDS011;67750;55.832;49.124;2023-05-02T00:30:04;5.25;;;3.15;;
78453;SDS011;67750;55.832;49.124;2023-05-02T00:32:34;6.22;;;3.42;;
78453;SDS011;67750;55.832;49.124;2023-05-02T00:35:04;6.12;;;3.17;;
78453;SDS011;67750;55.832;49.124;2023-05-02T00:37:34;4.97;;;3.00;;
78453;SDS011;67750;55.832;49.124;2023-05-02T00:40:04;4.50;;;2.80;;
78453;SDS011;67750;55.832;49.124;2023-05-02T00:42:34;5.70;;;2.85;;
78453;SDS011;67750;55.832;49.124;2023-05-02T00:45:05;4.30;;;2.67;;
78453;SDS011;67750;55.832;49.124;2023-05-02T00:47:34;6.15;;;2.70;;
78453;SDS011;67750;55.832;49.124;2023-05-02T00:50:04;3.80;;;2.72;;
78453;SDS011;67750;55.832;49.124;2023-05-02T00:52:34;4.05;;;2.50;;
78453;SDS011;67750;55.832;49.124;2023-05-02T00:55:04;4.40;;;2.70;;
78453;SDS011;67750;55.832;49.124;2023-05-02T00:57:35;5.53;;;2.60;;
78453;SDS011;67750;55.832;49.124;2023-05-02T01:00:05;4.87;;;2.70;;
78453;SDS011;67750;55.832;49.124;2023-05-02T01:16:08;4.35;;;2.70;;
78453;SDS011;67750;55.832;49.124;2023-05-02T01:18:39;5.90;;;3.00;;
78453;SDS011;67750;55.832;49.124;2023-05-02T01:21:10;5.80;;;2.90;;
78453;SDS011;67750;55.832;49.124;2023-05-02T01:29:19;5.53;;;2.47;;
78453;SDS011;67750;55.832;49.124;2023-05-02T01:31:50;4.87;;;2.52;;
78453;SDS011;67750;55.832;49.124;2023-05-02T01:34:23;4.58;;;2.20;;
78453;SDS011;67750;55.832;49.124;2023-05-02T01:36:53;5.00;;;2.80;;
78453;SDS011;67750;55.832;49.124;2023-05-02T01:39:25;4.65;;;2.58;;
78453;SDS011;67750;55.832;49.124;2023-05-02T01:44:46;3.98;;;2.75;;
78453;SDS011;67750;55.832;49.124;2023-05-02T01:50:06;4.45;;;2.20;;
78453;SDS011;67750;55.832;49.124;2023-05-02T01:52:36;4.40;;;2.42;;
78453;SDS011;67750;55.832;49.124;2023-05-02T01:55:06;4.95;;;2.40;;
78453;SDS011;67750;55.832;49.124;2023-05-02T01:57:38;2.87;;;2.12;;
78453;SDS011;67750;55.832;49.124;2023-05-02T02:02:56;4.30;;;1.98;;
78453;SDS011;67750;55.832;49.124;2023-05-02T02:05:26;5.15;;;2.15;;
78453;SDS011;67750;55.832;49.124;2023-05-02T02:07:56;4.62;;;2.37;;
78453;SDS011;67750;55.832;49.124;2023-05-02T02:10:26;4.08;;;2.22;;
78453;SDS011;67750;55.832;49.124;2023-05-02T02:13:30;5.03;;;2.00;;
78453;SDS011;67750;55.832;49.124;2023-05-02T02:15:30;4.53;;;2.60;;
78453;SDS011;67750;55.832;49.124;2023-05-02T02:20:29;4.65;;;2.70;;
78453;SDS011;67750;55.832;49.124;2023-05-02T02:22:59;4.42;;;2.75;;
78453;SDS011;67750;55.832;49.124;2023-05-02T02:25:29;4.17;;;2.33;;
78453;SDS011;67750;55.832;49.124;2023-05-02T02:27:59;4.70;;;2.75;;
78453;SDS011;67750;55.832;49.124;2023-05-02T02:30:29;3.50;;;2.35;;
78453;SDS011;67750;55.832;49.124;2023-05-02T02:32:59;3.98;;;2.42;;
78453;SDS011;67750;55.832;49.124;2023-05-02T02:35:30;4.42;;;2.20;;
78453;SDS011;67750;55.832;49.124;2023-05-02T02:43:19;4.70;;;2.35;;
78453;SDS011;67750;55.832;49.124;2023-05-02T02:54:01;3.47;;;2.45;;
78453;SDS011;67750;55.832;49.124;2023-05-02T03:01:51;3.75;;;2.50;;
78453;SDS011;67750;55.832;49.124;2023-05-02T03:06:47;4.37;;;3.02;;
78453;SDS011;67750;55.832;49.124;2023-05-02T03:09:17;4.92;;;2.72;;
78453;SDS011;67750;55.832;49.124;2023-05-02T03:11:47;7.15;;;3.15;;
78453;SDS011;67750;55.832;49.124;2023-05-02T03:14:17;4.00;;;2.72;;
78453;SDS011;67750;55.832;49.124;2023-05-02T03:16:46;5.25;;;2.75;;
78453;SDS011;67750;55.832;49.124;2023-05-02T03:19:16;4.83;;;2.95;;
78453;SDS011;67750;55.832;49.124;2023-05-02T03:21:45;4.92;;;3.25;;
78453;SDS011;67750;55.832;49.124;2023-05-02T03:24:17;7.20;;;3.42;;
78453;SDS011;67750;55.832;49.124;2023-05-02T03:26:46;3.83;;;2.70;;
78453;SDS011;67750;55.832;49.124;2023-05-02T03:29:17;5.87;;;3.00;;
78453;SDS011;67750;55.832;49.124;2023-05-02T03:31:47;6.85;;;3.45;;
78453;SDS011;67750;55.832;49.124;2023-05-02T03:34:17;7.60;;;3.40;;
78453;SDS011;67750;55.832;49.124;2023-05-02T03:36:48;4.87;;;3.67;;
78453;SDS011;67750;55.832;49.124;2023-05-02T03:39:19;3.85;;;2.87;;
78453;SDS011;67750;55.832;49.124;2023-05-02T03:41:48;5.17;;;3.50;;
78453;SDS011;67750;55.832;49.124;2023-05-02T03:47:36;8.43;;;3.92;;
78453;SDS011;67750;55.832;49.124;2023-05-02T03:50:06;4.80;;;3.42;;
78453;SDS011;67750;55.832;49.124;2023-05-02T03:52:36;4.90;;;3.52;;
78453;SDS011;67750;55.832;49.124;2023-05-02T03:55:06;6.92;;;3.75;;
78453;SDS011;67750;55.832;49.124;2023-05-02T03:57:36;6.80;;;4.20;;
78453;SDS011;67750;55.832;49.124;2023-05-02T04:00:06;5.95;;;4.28;;
78453;SDS011;67750;55.832;49.124;2023-05-02T04:02:55;6.40;;;4.33;;
78453;SDS011;67750;55.832;49.124;2023-05-02T04:05:26;6.60;;;4.42;;
78453;SDS011;67750;55.832;49.124;2023-05-02T04:07:56;7.97;;;5.33;;
78453;SDS011;67750;55.832;49.124;2023-05-02T04:10:26;6.10;;;4.58;;
78453;SDS011;67750;55.832;49.124;2023-05-02T04:12:58;5.65;;;4.45;;
78453;SDS011;67750;55.832;49.124;2023-05-02T04:15:30;6.10;;;4.65;;
78453;SDS011;67750;55.832;49.124;2023-05-02T04:17:59;7.42;;;5.17;;
78453;SDS011;67750;55.832;49.124;2023-05-02T04:20:29;9.30;;;5.17;;
78453;SDS011;67750;55.832;49.124;2023-05-02T04:22:59;8.23;;;5.45;;
78453;SDS011;67750;55.832;49.124;2023-05-02T04:25:29;8.60;;;5.25;;
78453;SDS011;67750;55.832;49.124;2023-05-02T04:28:00;6.42;;;4.33;;
78453;SDS011;67750;55.832;49.124;2023-05-02T04:30:31;5.75;;;4.65;;
78453;SDS011;67750;55.832;49.124;2023-05-02T04:33:02;12.43;;;4.70;;
78453;SDS011;67750;55.832;49.124;2023-05-02T04:35:33;7.30;;;4.85;;
78453;SDS011;67750;55.832;49.124;2023-05-02T04:38:03;7.05;;;4.05;;
78453;SDS011;67750;55.832;49.124;2023-05-02T04:40:34;9.08;;;4.37;;
78453;SDS011;67750;55.832;49.124;2023-05-02T04:43:05;5.17;;;3.80;;
78453;SDS011;67750;55.832;49.124;2023-05-02T04:45:37;4.75;;;3.37;;
78453;SDS011;67750;55.832;49.124;2023-05-02T04:48:08;3.70;;;2.90;;
78453;SDS011;67750;55.832;49.124;2023-05-02T04:50:38;3.65;;;2.58;;
78453;SDS011;67750;55.832;49.124;2023-05-02T04:53:07;6.25;;;3.40;;
78453;SDS011;67750;55.832;49.124;2023-05-02T04:55:37;4.67;;;3.42;;
78453;SDS011;67750;55.832;49.124;2023-05-02T04:58:09;5.53;;;3.50;;
78453;SDS011;67750;55.832;49.124;2023-05-02T05:00:39;4.35;;;3.08;;
78453;SDS011;67750;55.832;49.124;2023-05-02T05:03:08;8.35;;;3.85;;
78453;SDS011;67750;55.832;49.124;2023-05-02T05:05:38;6.03;;;3.35;;
78453;SDS011;67750;55.832;49.124;2023-05-02T05:08:09;7.03;;;3.98;;
78453;SDS011;67750;55.832;49.124;2023-05-02T05:10:38;5.92;;;3.67;;
78453;SDS011;67750;55.832;49.124;2023-05-02T05:13:08;4.97;;;3.42;;
78453;SDS011;67750;55.832;49.124;2023-05-02T05:15:41;5.28;;;3.37;;
78453;SDS011;67750;55.832;49.124;2023-05-02T05:18:11;7.53;;;3.50;;
78453;SDS011;67750;55.832;49.124;2023-05-02T05:20:41;5.22;;;3.37;;
78453;SDS011;67750;55.832;49.124;2023-05-02T05:23:11;6.05;;;3.20;;
78453;SDS011;67750;55.832;49.124;2023-05-02T05:25:41;29.25;;;4.75;;
78453;SDS011;67750;55.832;49.124;2023-05-02T05:28:10;9.13;;;3.37;;
78453;SDS011;67750;55.832;49.124;2023-05-02T05:30:40;5.17;;;3.12;;
78453;SDS011;67750;55.832;49.124;2023-05-02T05:33:11;4.50;;;2.77;;
78453;SDS011;67750;55.832;49.124;2023-05-02T05:35:41;4.83;;;2.90;;
78453;SDS011;67750;55.832;49.124;2023-05-02T05:38:11;5.95;;;3.10;;
78453;SDS011;67750;55.832;49.124;2023-05-02T05:40:42;6.15;;;3.00;;
78453;SDS011;67750;55.832;49.124;2023-05-02T05:43:12;7.92;;;3.58;;
78453;SDS011;67750;55.832;49.124;2023-05-02T05:45:42;7.25;;;3.47;;
78453;SDS011;67750;55.832;49.124;2023-05-02T05:48:12;7.80;;;3.12;;
78453;SDS011;67750;55.832;49.124;2023-05-02T05:50:43;6.10;;;3.25;;
78453;SDS011;67750;55.832;49.124;2023-05-02T05:53:13;8.48;;;3.60;;
78453;SDS011;67750;55.832;49.124;2023-05-02T05:55:44;4.05;;;2.75;;
78453;SDS011;67750;55.832;49.124;2023-05-02T05:58:13;4.65;;;3.02;;
78453;SDS011;67750;55.832;49.124;2023-05-02T06:00:43;4.37;;;2.98;;
78453;SDS011;67750;55.832;49.124;2023-05-02T06:03:13;4.25;;;2.85;;
78453;SDS011;67750;55.832;49.124;2023-05-02T06:05:43;5.50;;;3.12;;
78453;SDS011;67750;55.832;49.124;2023-05-02T06:08:13;5.50;;;3.00;;
78453;SDS011;67750;55.832;49.124;2023-05-02T06:10:42;6.78;;;2.90;;
78453;SDS011;67750;55.832;49.124;2023-05-02T06:13:13;4.33;;;3.22;;
78453;SDS011;67750;55.832;49.124;2023-05-02T06:15:43;4.60;;;3.30;;
78453;SDS011;67750;55.832;49.124;2023-05-02T06:18:12;5.62;;;2.85;;
78453;SDS011;67750;55.832;49.124;2023-05-02T06:20:43;5.60;;;2.80;;
78453;SDS011;67750;55.832;49.124;2023-05-02T06:23:12;4.22;;;2.72;;
78453;SDS011;67750;55.832;49.124;2023-05-02T06:25:42;5.37;;;2.98;;
78453;SDS011;67750;55.832;49.124;2023-05-02T06:28:11;6.83;;;2.87;;
78453;SDS011;67750;55.832;49.124;2023-05-02T06:30:41;3.72;;;2.58;;
78453;SDS011;67750;55.832;49.124;2023-05-02T06:33:10;4.85;;;2.92;;
78453;SDS011;67750;55.832;49.124;2023-05-02T06:35:40;5.97;;;3.40;;
78453;SDS011;67750;55.832;49.124;2023-05-02T06:38:09;9.15;;;4.65;;
78453;SDS011;67750;55.832;49.124;2023-05-02T06:40:39;6.45;;;4.20;;
78453;SDS011;67750;55.832;49.124;2023-05-02T06:43:10;11.45;;;3.62;;
78453;SDS011;67750;55.832;49.124;2023-05-02T06:45:40;8.53;;;3.85;;
78453;SDS011;67750;55.832;49.124;2023-05-02T06:48:09;8.28;;;4.53;;
78453;SDS011;67750;55.832;49.124;2023-05-02T06:50:39;8.50;;;3.95;;
78453;SDS011;67750;55.832;49.124;2023-05-02T06:53:09;6.40;;;3.77;;
78453;SDS011;67750;55.832;49.124;2023-05-02T06:55:38;8.63;;;3.95;;
78453;SDS011;67750;55.832;49.124;2023-05-02T06:58:07;5.95;;;4.15;;
78453;SDS011;67750;55.832;49.124;2023-05-02T07:00:37;7.28;;;4.17;;
78453;SDS011;67750;55.832;49.124;2023-05-02T07:03:07;8.00;;;5.22;;
78453;SDS011;67750;55.832;49.124;2023-05-02T07:05:37;13.65;;;4.65;;
78453;SDS011;67750;55.832;49.124;2023-05-02T07:08:07;12.23;;;4.33;;
78453;SDS011;67750;55.832;49.124;2023-05-02T07:10:37;10.08;;;4.12;;
78453;SDS011;67750;55.832;49.124;2023-05-02T07:13:07;7.42;;;3.90;;
78453;SDS011;67750;55.832;49.124;2023-05-02T07:15:36;6.47;;;3.25;;
78453;SDS011;67750;55.832;49.124;2023-05-02T07:18:06;6.10;;;3.60;;
78453;SDS011;67750;55.832;49.124;2023-05-02T07:20:35;7.45;;;3.50;;
78453;SDS011;67750;55.832;49.124;2023-05-02T07:23:06;4.90;;;3.20;;
78453;SDS011;67750;55.832;49.124;2023-05-02T07:25:35;4.37;;;3.35;;
78453;SDS011;67750;55.832;49.124;2023-05-02T07:28:06;4.70;;;3.15;;
78453;SDS011;67750;55.832;49.124;2023-05-02T07:30:35;4.30;;;3.02;;
78453;SDS011;67750;55.832;49.124;2023-05-02T07:33:04;5.37;;;3.50;;
78453;SDS011;67750;55.832;49.124;2023-05-02T07:35:34;3.60;;;2.75;;
78453;SDS011;67750;55.832;49.124;2023-05-02T07:38:03;4.55;;;2.90;;
78453;SDS011;67750;55.832;49.124;2023-05-02T07:40:33;4.97;;;3.02;;
78453;SDS011;67750;55.832;49.124;2023-05-02T07:43:03;4.53;;;2.90;;
78453;SDS011;67750;55.832;49.124;2023-05-02T07:45:32;4.45;;;3.05;;
78453;SDS011;67750;55.832;49.124;2023-05-02T07:48:02;4.72;;;3.02;;
78453;SDS011;67750;55.832;49.124;2023-05-02T07:50:31;6.47;;;2.92;;
78453;SDS011;67750;55.832;49.124;2023-05-02T07:53:01;4.83;;;3.00;;
78453;SDS011;67750;55.832;49.124;2023-05-02T07:55:30;4.42;;;3.15;;
78453;SDS011;67750;55.832;49.124;2023-05-02T07:58:00;4.40;;;3.00;;
78453;SDS011;67750;55.832;49.124;2023-05-02T08:00:29;4.22;;;2.85;;
78453;SDS011;67750;55.832;49.124;2023-05-02T08:02:59;4.85;;;3.45;;
78453;SDS011;67750;55.832;49.124;2023-05-02T08:05:28;4.55;;;2.77;;
78453;SDS011;67750;55.832;49.124;2023-05-02T08:07:58;6.42;;;3.40;;
78453;SDS011;67750;55.832;49.124;2023-05-02T08:10:28;7.75;;;3.58;;
78453;SDS011;67750;55.832;49.124;2023-05-02T08:12:58;6.30;;;3.33;;
78453;SDS011;67750;55.832;49.124;2023-05-02T08:15:27;5.65;;;3.50;;
78453;SDS011;67750;55.832;49.124;2023-05-02T08:17:57;7.55;;;3.20;;
78453;SDS011;67750;55.832;49.124;2023-05-02T08:20:26;6.78;;;3.33;;
78453;SDS011;67750;55.832;49.124;2023-05-02T08:22:56;11.80;;;3.55;;
78453;SDS011;67750;55.832;49.124;2023-05-02T08:25:26;5.22;;;3.22;;
78453;SDS011;67750;55.832;49.124;2023-05-02T08:27:56;6.60;;;3.60;;
78453;SDS011;67750;55.832;49.124;2023-05-02T08:30:25;4.97;;;3.35;;
78453;SDS011;67750;55.832;49.124;2023-05-02T08:32:56;5.58;;;3.22;;
78453;SDS011;67750;55.832;49.124;2023-05-02T08:35:27;7.42;;;3.67;;
78453;SDS011;67750;55.832;49.124;2023-05-02T08:37:57;5.92;;;3.47;;
78453;SDS011;67750;55.832;49.124;2023-05-02T08:40:27;5.92;;;3.50;;
78453;SDS011;67750;55.832;49.124;2023-05-02T08:42:56;5.83;;;3.45;;
78453;SDS011;67750;55.832;49.124;2023-05-02T08:45:26;5.67;;;3.42;;
78453;SDS011;67750;55.832;49.124;2023-05-02T08:47:55;5.28;;;3.50;;
78453;SDS011;67750;55.832;49.124;2023-05-02T08:50:24;6.50;;;3.52;;
78453;SDS011;67750;55.832;49.124;2023-05-02T08:52:54;6.00;;;3.33;;
78453;SDS011;67750;55.832;49.124;2023-05-02T08:55:24;5.45;;;3.50;;
78453;SDS011;67750;55.832;49.124;2023-05-02T08:57:54;6.25;;;3.50;;
78453;SDS011;67750;55.832;49.124;2023-05-02T09:05:42;8.50;;;3.92;;
78453;SDS011;67750;55.832;49.124;2023-05-02T09:08:13;7.30;;;3.83;;
78453;SDS011;67750;55.832;49.124;2023-05-02T09:18:53;7.22;;;4.25;;
78453;SDS011;67750;55.832;49.124;2023-05-02T09:21:24;7.97;;;3.92;;
78453;SDS011;67750;55.832;49.124;2023-05-02T09:23:54;7.08;;;4.33;;
78453;SDS011;67750;55.832;49.124;2023-05-02T09:29:15;6.78;;;3.65;;
78453;SDS011;67750;55.832;49.124;2023-05-02T09:31:46;7.22;;;4.55;;
78453;SDS011;67750;55.832;49.124;2023-05-02T09:34:16;8.73;;;4.83;;
78453;SDS011;67750;55.832;49.124;2023-05-02T09:36:46;8.60;;;4.90;;
78453;SDS011;67750;55.832;49.124;2023-05-02T09:39:19;9.78;;;5.37;;
78453;SDS011;67750;55.832;49.124;2023-05-02T09:41:49;8.05;;;4.95;;
78453;SDS011;67750;55.832;49.124;2023-05-02T09:44:19;8.00;;;5.00;;
78453;SDS011;67750;55.832;49.124;2023-05-02T09:49:39;8.40;;;5.37;;
78453;SDS011;67750;55.832;49.124;2023-05-02T09:55:00;6.35;;;4.92;;
78453;SDS011;67750;55.832;49.124;2023-05-02T10:00:21;7.47;;;4.70;;
78453;SDS011;67750;55.832;49.124;2023-05-02T10:02:50;9.83;;;5.37;;
78453;SDS011;67750;55.832;49.124;2023-05-02T10:05:20;9.38;;;5.45;;
78453;SDS011;67750;55.832;49.124;2023-05-02T10:07:50;8.90;;;5.60;;
78453;SDS011;67750;55.832;49.124;2023-05-02T10:10:19;8.58;;;5.80;;
78453;SDS011;67750;55.832;49.124;2023-05-02T10:12:49;8.75;;;5.28;;
78453;SDS011;67750;55.832;49.124;2023-05-02T10:15:19;7.78;;;4.90;;
78453;SDS011;67750;55.832;49.124;2023-05-02T10:17:50;6.53;;;3.85;;
78453;SDS011;67750;55.832;49.124;2023-05-02T10:23:09;6.47;;;3.50;;
78453;SDS011;67750;55.832;49.124;2023-05-02T10:25:39;5.50;;;3.30;;
78453;SDS011;67750;55.832;49.124;2023-05-02T10:28:09;6.33;;;3.15;;
78453;SDS011;67750;55.832;49.124;2023-05-02T10:30:38;15.78;;;5.00;;
78453;SDS011;67750;55.832;49.124;2023-05-02T10:33:08;13.22;;;5.20;;
78453;SDS011;67750;55.832;49.124;2023-05-02T10:35:42;6.72;;;3.30;;
78453;SDS011;67750;55.832;49.124;2023-05-02T10:38:10;7.50;;;3.70;;
78453;SDS011;67750;55.832;49.124;2023-05-02T10:40:40;9.93;;;4.47;;
78453;SDS011;67750;55.832;49.124;2023-05-02T10:43:12;8.40;;;4.33;;
78453;SDS011;67750;55.832;49.124;2023-05-02T10:45:41;6.17;;;4.70;;
78453;SDS011;67750;55.832;49.124;2023-05-02T10:51:00;7.33;;;5.03;;
78453;SDS011;67750;55.832;49.124;2023-05-02T10:53:30;12.50;;;5.42;;
78453;SDS011;67750;55.832;49.124;2023-05-02T10:58:51;7.72;;;4.10;;
78453;SDS011;67750;55.832;49.124;2023-05-02T11:04:10;5.05;;;3.70;;
78453;SDS011;67750;55.832;49.124;2023-05-02T11:09:30;6.80;;;4.00;;
78453;SDS011;67750;55.832;49.124;2023-05-02T11:12:00;5.50;;;3.20;;
78453;SDS011;67750;55.832;49.124;2023-05-02T11:20:52;9.55;;;4.10;;
78453;SDS011;67750;55.832;49.124;2023-05-02T11:23:42;5.70;;;3.55;;
78453;SDS011;67750;55.832;49.124;2023-05-02T11:29:02;6.50;;;3.55;;
78453;SDS011;67750;55.832;49.124;2023-05-02T11:34:03;7.15;;;3.60;;
78453;SDS011;67750;55.832;49.124;2023-05-02T11:36:32;7.08;;;3.95;;
78453;SDS011;67750;55.832;49.124;2023-05-02T11:44:23;6.58;;;4.00;;
78453;SDS011;67750;55.832;49.124;2023-05-02T11:50:51;6.33;;;3.77;;
78453;SDS011;67750;55.832;49.124;2023-05-02T11:53:22;5.30;;;3.37;;
78453;SDS011;67750;55.832;49.124;2023-05-02T11:58:22;6.70;;;3.87;;
78453;SDS011;67750;55.832;49.124;2023-05-02T12:00:52;10.72;;;5.50;;
78453;SDS011;67750;55.832;49.124;2023-05-02T12:06:15;6.12;;;3.67;;
78453;SDS011;67750;55.832;49.124;2023-05-02T12:08:47;5.55;;;3.50;;
78453;SDS011;67750;55.832;49.124;2023-05-02T12:13:47;5.80;;;2.90;;
78453;SDS011;67750;55.832;49.124;2023-05-02T12:16:19;5.50;;;3.65;;
78453;SDS011;67750;55.832;49.124;2023-05-02T12:18:49;7.78;;;3.33;;
78453;SDS011;67750;55.832;49.124;2023-05-02T12:21:18;4.22;;;2.98;;
78453;SDS011;67750;55.832;49.124;2023-05-02T12:23:51;4.97;;;3.05;;
78453;SDS011;67750;55.832;49.124;2023-05-02T12:26:22;4.37;;;3.12;;
78453;SDS011;67750;55.832;49.124;2023-05-02T12:28:54;5.37;;;3.50;;
78453;SDS011;67750;55.832;49.124;2023-05-02T12:31:25;5.15;;;3.30;;
78453;SDS011;67750;55.832;49.124;2023-05-02T12:33:56;5.03;;;3.15;;
78453;SDS011;67750;55.832;49.124;2023-05-02T12:36:27;5.45;;;3.42;;
78453;SDS011;67750;55.832;49.124;2023-05-02T12:38:58;6.70;;;3.25;;
78453;SDS011;67750;55.832;49.124;2023-05-02T12:44:34;4.00;;;2.70;;
78453;SDS011;67750;55.832;49.124;2023-05-02T12:55:39;4.78;;;3.22;;
78453;SDS011;67750;55.832;49.124;2023-05-02T13:00:58;5.08;;;3.50;;
78453;SDS011;67750;55.832;49.124;2023-05-02T13:03:27;6.30;;;3.35;;
78453;SDS011;67750;55.832;49.124;2023-05-02T13:05:57;5.87;;;3.40;;
78453;SDS011;67750;55.832;49.124;2023-05-02T13:08:26;5.78;;;3.00;;
78453;SDS011;67750;55.832;49.124;2023-05-02T13:10:56;5.08;;;2.60;;
78453;SDS011;67750;55.832;49.124;2023-05-02T13:13:27;4.03;;;2.77;;
78453;SDS011;67750;55.832;49.124;2023-05-02T13:15:57;5.22;;;2.67;;
78453;SDS011;67750;55.832;49.124;2023-05-02T13:18:26;3.52;;;2.58;;
78453;SDS011;67750;55.832;49.124;2023-05-02T13:20:56;4.58;;;2.77;;
78453;SDS011;67750;55.832;49.124;2023-05-02T13:23:25;4.30;;;2.55;;
78453;SDS011;67750;55.832;49.124;2023-05-02T13:25:54;4.00;;;2.72;;
78453;SDS011;67750;55.832;49.124;2023-05-02T13:28:24;4.28;;;2.85;;
78453;SDS011;67750;55.832;49.124;2023-05-02T13:30:55;4.55;;;3.08;;
78453;SDS011;67750;55.832;49.124;2023-05-02T13:33:24;3.77;;;2.70;;
78453;SDS011;67750;55.832;49.124;2023-05-02T13:35:54;4.12;;;2.62;;
78453;SDS011;67750;55.832;49.124;2023-05-02T13:38:23;4.83;;;2.65;;
78453;SDS011;67750;55.832;49.124;2023-05-02T13:40:53;4.80;;;2.40;;
78453;SDS011;67750;55.832;49.124;2023-05-02T13:43:22;3.47;;;2.25;;
78453;SDS011;67750;55.832;49.124;2023-05-02T13:45:52;3.77;;;2.12;;
78453;SDS011;67750;55.832;49.124;2023-05-02T13:48:21;4.08;;;2.12;;
78453;SDS011;67750;55.832;49.124;2023-05-02T13:50:51;3.90;;;2.40;;
78453;SDS011;67750;55.832;49.124;2023-05-02T13:53:21;4.33;;;2.27;;
78453;SDS011;67750;55.832;49.124;2023-05-02T13:55:50;3.87;;;2.30;;
78453;SDS011;67750;55.832;49.124;2023-05-02T13:58:20;4.05;;;2.33;;
78453;SDS011;67750;55.832;49.124;2023-05-02T14:00:49;3.45;;;2.42;;
78453;SDS011;67750;55.832;49.124;2023-05-02T14:03:19;4.50;;;2.42;;
78453;SDS011;67750;55.832;49.124;2023-05-02T14:05:48;5.25;;;2.75;;
78453;SDS011;67750;55.832;49.124;2023-05-02T14:08:18;6.92;;;2.60;;
78453;SDS011;67750;55.832;49.124;2023-05-02T14:10:47;4.95;;;2.83;;
78453;SDS011;67750;55.832;49.124;2023-05-02T14:13:18;4.87;;;2.75;;
78453;SDS011;67750;55.832;49.124;2023-05-02T14:15:47;6.45;;;2.80;;
78453;SDS011;67750;55.832;49.124;2023-05-02T14:18:17;4.65;;;2.47;;
78453;SDS011;67750;55.832;49.124;2023-05-02T14:20:46;5.03;;;2.33;;
78453;SDS011;67750;55.832;49.124;2023-05-02T14:23:16;5.28;;;3.08;;
78453;SDS011;67750;55.832;49.124;2023-05-02T14:25:45;4.75;;;2.50;;
78453;SDS011;67750;55.832;49.124;2023-05-02T14:28:15;5.28;;;2.37;;
78453;SDS011;67750;55.832;49.124;2023-05-02T14:30:46;4.95;;;2.70;;
78453;SDS011;67750;55.832;49.124;2023-05-02T14:33:16;3.02;;;2.10;;
78453;SDS011;67750;55.832;49.124;2023-05-02T14:35:46;4.08;;;2.12;;
78453;SDS011;67750;55.832;49.124;2023-05-02T14:38:15;5.87;;;2.37;;
78453;SDS011;67750;55.832;49.124;2023-05-02T14:40:44;3.42;;;2.02;;
78453;SDS011;67750;55.832;49.124;2023-05-02T14:43:14;4.97;;;2.15;;
78453;SDS011;67750;55.832;49.124;2023-05-02T14:45:43;3.40;;;2.20;;
78453;SDS011;67750;55.832;49.124;2023-05-02T14:48:13;4.00;;;2.27;;
78453;SDS011;67750;55.832;49.124;2023-05-02T14:50:43;3.60;;;2.42;;
78453;SDS011;67750;55.832;49.124;2023-05-02T14:53:12;3.58;;;2.25;;
78453;SDS011;67750;55.832;49.124;2023-05-02T14:55:42;3.30;;;1.82;;
78453;SDS011;67750;55.832;49.124;2023-05-02T14:58:11;4.70;;;1.95;;
78453;SDS011;67750;55.832;49.124;2023-05-02T15:03:11;3.77;;;2.20;;
78453;SDS011;67750;55.832;49.124;2023-05-02T15:05:40;4.33;;;2.15;;
78453;SDS011;67750;55.832;49.124;2023-05-02T15:08:10;3.90;;;2.45;;
78453;SDS011;67750;55.832;49.124;2023-05-02T15:10:39;3.15;;;2.12;;
78453;SDS011;67750;55.832;49.124;2023-05-02T15:13:09;3.98;;;2.27;;
78453;SDS011;67750;55.832;49.124;2023-05-02T15:15:38;4.00;;;2.10;;
78453;SDS011;67750;55.832;49.124;2023-05-02T15:18:08;4.28;;;2.30;;
78453;SDS011;67750;55.832;49.124;2023-05-02T15:20:37;4.80;;;2.60;;
78453;SDS011;67750;55.832;49.124;2023-05-02T15:23:07;5.50;;;2.98;;
78453;SDS011;67750;55.832;49.124;2023-05-02T15:25:36;5.15;;;3.10;;
78453;SDS011;67750;55.832;49.124;2023-05-02T15:28:06;6.42;;;2.90;;
78453;SDS011;67750;55.832;49.124;2023-05-02T15:30:35;5.58;;;2.75;;
78453;SDS011;67750;55.832;49.124;2023-05-02T15:33:05;4.33;;;2.62;;
78453;SDS011;67750;55.832;49.124;2023-05-02T15:35:35;6.10;;;3.20;;
78453;SDS011;67750;55.832;49.124;2023-05-02T15:38:04;4.42;;;2.60;;
78453;SDS011;67750;55.832;49.124;2023-05-02T15:40:35;4.58;;;3.05;;
78453;SDS011;67750;55.832;49.124;2023-05-02T15:43:04;3.90;;;2.40;;
78453;SDS011;67750;55.832;49.124;2023-05-02T15:45:34;3.85;;;2.52;;
78453;SDS011;67750;55.832;49.124;2023-05-02T15:48:03;5.78;;;2.47;;
78453;SDS011;67750;55.832;49.124;2023-05-02T15:50:33;4.55;;;2.42;;
78453;SDS011;67750;55.832;49.124;2023-05-02T15:53:02;5.15;;;2.60;;
78453;SDS011;67750;55.832;49.124;2023-05-02T15:58:27;4.83;;;2.15;;
78453;SDS011;67750;55.832;49.124;2023-05-02T16:00:56;4.85;;;2.45;;
78453;SDS011;67750;55.832;49.124;2023-05-02T16:03:26;5.25;;;2.60;;
78453;SDS011;67750;55.832;49.124;2023-05-02T16:05:57;3.42;;;2.12;;
78453;SDS011;67750;55.832;49.124;2023-05-02T16:08:28;3.95;;;2.40;;
78453;SDS011;67750;55.832;49.124;2023-05-02T16:10:59;4.40;;;2.30;;
78453;SDS011;67750;55.832;49.124;2023-05-02T16:13:29;4.85;;;2.37;;
78453;SDS011;67750;55.832;49.124;2023-05-02T16:15:58;3.77;;;2.12;;
78453;SDS011;67750;55.832;49.124;2023-05-02T16:18:28;4.62;;;2.25;;
78453;SDS011;67750;55.832;49.124;2023-05-02T16:20:57;3.85;;;2.40;;
78453;SDS011;67750;55.832;49.124;2023-05-02T16:23:27;3.30;;;2.10;;
78453;SDS011;67750;55.832;49.124;2023-05-02T16:25:58;4.58;;;2.42;;
78453;SDS011;67750;55.832;49.124;2023-05-02T16:29:01;3.55;;;1.98;;
78453;SDS011;67750;55.832;49.124;2023-05-02T16:31:04;6.25;;;2.08;;
78453;SDS011;67750;55.832;49.124;2023-05-02T16:33:50;6.65;;;2.20;;
78453;SDS011;67750;55.832;49.124;2023-05-02T16:36:20;3.08;;;2.20;;
78453;SDS011;67750;55.832;49.124;2023-05-02T16:38:52;3.42;;;2.20;;
78453;SDS011;67750;55.832;49.124;2023-05-02T16:41:59;4.55;;;2.30;;
78453;SDS011;67750;55.832;49.124;2023-05-02T16:43:56;4.12;;;2.12;;
78453;SDS011;67750;55.832;49.124;2023-05-02T16:46:28;3.17;;;2.15;;
78453;SDS011;67750;55.832;49.124;2023-05-02T16:51:30;4.62;;;2.47;;
78453;SDS011;67750;55.832;49.124;2023-05-02T16:56:49;3.65;;;2.22;;
78453;SDS011;67750;55.832;49.124;2023-05-02T16:59:21;5.17;;;2.37;;
78453;SDS011;67750;55.832;49.124;2023-05-02T17:01:51;4.05;;;2.77;;
78453;SDS011;67750;55.832;49.124;2023-05-02T17:04:22;4.20;;;2.02;;
78453;SDS011;67750;55.832;49.124;2023-05-02T17:06:53;3.52;;;2.25;;
78453;SDS011;67750;55.832;49.124;2023-05-02T17:09:23;4.75;;;2.40;;
78453;SDS011;67750;55.832;49.124;2023-05-02T17:11:54;7.67;;;4.40;;
78453;SDS011;67750;55.832;49.124;2023-05-02T17:14:24;4.95;;;2.98;;
78453;SDS011;67750;55.832;49.124;2023-05-02T17:20:12;4.40;;;2.33;;